sensor_id;sensor_type;location;lat;lon;timestamp;P1;durP1;ratioP1;P2;durP2;ratioP2
66089;SDS011;53113;45.602;11.904;2022-12-07T00:01:19;20.70;;;17.10;;
66089;SDS011;53113;45.602;11.904;2022-12-07T00:03:52;21.30;;;15.60;;
66089;SDS011;53113;45.602;11.904;2022-12-07T00:06:22;18.60;;;15.50;;
66089;SDS011;53113;45.602;11.904;2022-12-07T00:08:48;19.50;;;15.70;;
66089;SDS011;53113;45.602;11.904;2022-12-07T00:11:15;18.90;;;15.30;;
66089;SDS011;53113;45.602;11.904;2022-12-07T00:13:43;23.80;;;17.40;;
66089;SDS011;53113;45.602;11.904;2022-12-07T00:16:14;25.90;;;18.50;;
66089;SDS011;53113;45.602;11.904;2022-12-07T00:18:41;20.50;;;16.50;;
66089;SDS011;53113;45.602;11.904;2022-12-07T00:21:13;23.20;;;17.00;;
66089;SDS011;53113;45.602;11.904;2022-12-07T00:23:43;19.70;;;15.00;;
66089;SDS011;53113;45.602;11.904;2022-12-07T00:26:11;21.30;;;15.40;;
66089;SDS011;53113;45.602;11.904;2022-12-07T00:31:15;17.00;;;13.00;;
66089;SDS011;53113;45.602;11.904;2022-12-07T00:33:43;21.30;;;15.00;;
66089;SDS011;53113;45.602;11.904;2022-12-07T00:36:11;20.80;;;14.50;;
66089;SDS011;53113;45.602;11.904;2022-12-07T00:38:39;19.70;;;14.90;;
66089;SDS011;53113;45.602;11.904;2022-12-07T00:41:28;19.60;;;14.60;;
66089;SDS011;53113;45.602;11.904;2022-12-07T00:43:53;19.90;;;15.10;;
66089;SDS011;53113;45.602;11.904;2022-12-07T00:46:19;17.40;;;13.90;;
66089;SDS011;53113;45.602;11.904;2022-12-07T00:48:46;20.50;;;14.80;;
66089;SDS011;53113;45.602;11.904;2022-12-07T00:51:13;22.90;;;17.10;;
66089;SDS011;53113;45.602;11.904;2022-12-07T00:53:40;21.60;;;16.30;;
66089;SDS011;53113;45.602;11.904;2022-12-07T00:56:11;18.70;;;13.60;;
66089;SDS011;53113;45.602;11.904;2022-12-07T00:58:38;18.80;;;14.30;;
66089;SDS011;53113;45.602;11.904;2022-12-07T01:01:05;17.00;;;13.00;;
66089;SDS011;53113;45.602;11.904;2022-12-07T01:03:32;16.70;;;12.10;;
66089;SDS011;53113;45.602;11.904;2022-12-07T01:05:58;15.30;;;12.00;;
66089;SDS011;53113;45.602;11.904;2022-12-07T01:08:25;16.20;;;12.50;;
66089;SDS011;53113;45.602;11.904;2022-12-07T01:11:05;18.60;;;12.50;;
66089;SDS011;53113;45.602;11.904;2022-12-07T01:13:34;16.20;;;11.90;;
66089;SDS011;53113;45.602;11.904;2022-12-07T01:16:00;17.80;;;12.30;;
66089;SDS011;53113;45.602;11.904;2022-12-07T01:18:28;17.10;;;13.20;;
66089;SDS011;53113;45.602;11.904;2022-12-07T01:21:09;15.70;;;11.90;;
66089;SDS011;53113;45.602;11.904;2022-12-07T01:23:36;19.10;;;14.70;;
66089;SDS011;53113;45.602;11.904;2022-12-07T01:26:03;19.10;;;14.80;;
66089;SDS011;53113;45.602;11.904;2022-12-07T01:28:31;19.20;;;14.60;;
66089;SDS011;53113;45.602;11.904;2022-12-07T01:31:02;16.60;;;12.20;;
66089;SDS011;53113;45.602;11.904;2022-12-07T01:33:30;17.30;;;13.20;;
66089;SDS011;53113;45.602;11.904;2022-12-07T01:36:08;15.80;;;12.20;;
66089;SDS011;53113;45.602;11.904;2022-12-07T01:38:53;14.70;;;10.90;;
66089;SDS011;53113;45.602;11.904;2022-12-07T01:41:22;15.10;;;11.80;;
66089;SDS011;53113;45.602;11.904;2022-12-07T01:46:52;16.40;;;12.70;;
66089;SDS011;53113;45.602;11.904;2022-12-07T01:51:54;17.70;;;12.90;;
66089;SDS011;53113;45.602;11.904;2022-12-07T01:54:26;15.70;;;11.70;;
66089;SDS011;53113;45.602;11.904;2022-12-07T01:56:53;18.20;;;13.60;;
66089;SDS011;53113;45.602;11.904;2022-12-07T01:59:23;21.10;;;15.30;;
66089;SDS011;53113;45.602;11.904;2022-12-07T02:01:52;17.50;;;14.10;;
66089;SDS011;53113;45.602;11.904;2022-12-07T02:04:20;15.50;;;12.30;;
66089;SDS011;53113;45.602;11.904;2022-12-07T02:06:47;17.10;;;12.60;;
66089;SDS011;53113;45.602;11.904;2022-12-07T02:09:14;16.80;;;12.10;;
66089;SDS011;53113;45.602;11.904;2022-12-07T02:11:40;15.10;;;11.30;;
66089;SDS011;53113;45.602;11.904;2022-12-07T02:14:06;15.70;;;11.30;;
66089;SDS011;53113;45.602;11.904;2022-12-07T02:16:42;16.30;;;12.40;;
66089;SDS011;53113;45.602;11.904;2022-12-07T02:19:42;15.70;;;11.80;;
66089;SDS011;53113;45.602;11.904;2022-12-07T02:25:07;16.00;;;12.20;;
66089;SDS011;53113;45.602;11.904;2022-12-07T02:30:38;20.00;;;14.90;;
66089;SDS011;53113;45.602;11.904;2022-12-07T02:35:39;19.20;;;14.40;;
66089;SDS011;53113;45.602;11.904;2022-12-07T02:38:20;16.70;;;12.50;;
66089;SDS011;53113;45.602;11.904;2022-12-07T02:43:28;17.10;;;12.00;;
66089;SDS011;53113;45.602;11.904;2022-12-07T02:46:05;14.70;;;10.40;;
66089;SDS011;53113;45.602;11.904;2022-12-07T02:48:35;15.60;;;11.20;;
66089;SDS011;53113;45.602;11.904;2022-12-07T02:51:04;17.10;;;11.30;;
66089;SDS011;53113;45.602;11.904;2022-12-07T02:53:34;17.30;;;12.20;;
66089;SDS011;53113;45.602;11.904;2022-12-07T02:56:07;14.70;;;10.60;;
66089;SDS011;53113;45.602;11.904;2022-12-07T03:04:08;17.10;;;12.40;;
66089;SDS011;53113;45.602;11.904;2022-12-07T03:06:55;19.20;;;13.10;;
66089;SDS011;53113;45.602;11.904;2022-12-07T03:12:14;14.80;;;10.50;;
66089;SDS011;53113;45.602;11.904;2022-12-07T03:14:46;11.70;;;8.10;;
66089;SDS011;53113;45.602;11.904;2022-12-07T03:17:22;15.10;;;9.80;;
66089;SDS011;53113;45.602;11.904;2022-12-07T03:19:51;14.60;;;9.60;;
66089;SDS011;53113;45.602;11.904;2022-12-07T03:22:20;15.20;;;9.90;;
66089;SDS011;53113;45.602;11.904;2022-12-07T03:24:52;13.80;;;9.60;;
66089;SDS011;53113;45.602;11.904;2022-12-07T03:30:47;18.00;;;10.90;;
66089;SDS011;53113;45.602;11.904;2022-12-07T03:33:21;15.90;;;10.40;;
66089;SDS011;53113;45.602;11.904;2022-12-07T03:36:04;15.20;;;9.90;;
66089;SDS011;53113;45.602;11.904;2022-12-07T03:38:38;15.00;;;10.40;;
66089;SDS011;53113;45.602;11.904;2022-12-07T03:41:14;17.70;;;12.10;;
66089;SDS011;53113;45.602;11.904;2022-12-07T03:43:42;18.70;;;13.50;;
66089;SDS011;53113;45.602;11.904;2022-12-07T03:49:20;15.70;;;10.40;;
66089;SDS011;53113;45.602;11.904;2022-12-07T03:51:51;17.80;;;11.90;;
66089;SDS011;53113;45.602;11.904;2022-12-07T03:54:36;18.20;;;11.40;;
66089;SDS011;53113;45.602;11.904;2022-12-07T03:57:09;14.90;;;10.10;;
66089;SDS011;53113;45.602;11.904;2022-12-07T03:59:37;15.30;;;10.70;;
66089;SDS011;53113;45.602;11.904;2022-12-07T04:02:06;15.80;;;10.90;;
66089;SDS011;53113;45.602;11.904;2022-12-07T04:04:32;15.90;;;10.70;;
66089;SDS011;53113;45.602;11.904;2022-12-07T04:06:59;16.10;;;12.10;;
66089;SDS011;53113;45.602;11.904;2022-12-07T04:09:25;16.90;;;11.90;;
66089;SDS011;53113;45.602;11.904;2022-12-07T04:11:52;15.90;;;11.90;;
66089;SDS011;53113;45.602;11.904;2022-12-07T04:14:17;19.60;;;12.90;;
66089;SDS011;53113;45.602;11.904;2022-12-07T04:16:51;22.70;;;14.20;;
66089;SDS011;53113;45.602;11.904;2022-12-07T04:19:19;20.70;;;12.80;;
66089;SDS011;53113;45.602;11.904;2022-12-07T04:21:46;16.00;;;10.70;;
66089;SDS011;53113;45.602;11.904;2022-12-07T04:24:13;17.70;;;11.50;;
66089;SDS011;53113;45.602;11.904;2022-12-07T04:26:41;15.80;;;10.40;;
66089;SDS011;53113;45.602;11.904;2022-12-07T04:29:07;15.20;;;10.20;;
66089;SDS011;53113;45.602;11.904;2022-12-07T04:31:33;14.20;;;10.20;;
66089;SDS011;53113;45.602;11.904;2022-12-07T04:34:00;15.10;;;11.10;;
66089;SDS011;53113;45.602;11.904;2022-12-07T04:36:26;17.20;;;11.70;;
66089;SDS011;53113;45.602;11.904;2022-12-07T04:38:55;16.20;;;11.30;;
66089;SDS011;53113;45.602;11.904;2022-12-07T04:41:21;16.50;;;11.30;;
66089;SDS011;53113;45.602;11.904;2022-12-07T04:44:00;15.30;;;11.40;;
66089;SDS011;53113;45.602;11.904;2022-12-07T04:46:28;20.00;;;13.00;;
66089;SDS011;53113;45.602;11.904;2022-12-07T04:48:56;18.70;;;13.60;;
66089;SDS011;53113;45.602;11.904;2022-12-07T04:51:24;21.20;;;13.00;;
66089;SDS011;53113;45.602;11.904;2022-12-07T04:53:52;17.10;;;11.50;;
66089;SDS011;53113;45.602;11.904;2022-12-07T04:56:19;18.10;;;12.10;;
66089;SDS011;53113;45.602;11.904;2022-12-07T04:58:46;16.50;;;11.50;;
66089;SDS011;53113;45.602;11.904;2022-12-07T05:01:13;14.20;;;10.40;;
66089;SDS011;53113;45.602;11.904;2022-12-07T05:03:40;15.40;;;10.80;;
66089;SDS011;53113;45.602;11.904;2022-12-07T05:06:06;17.40;;;12.00;;
66089;SDS011;53113;45.602;11.904;2022-12-07T05:08:33;16.40;;;11.60;;
66089;SDS011;53113;45.602;11.904;2022-12-07T05:11:05;18.40;;;11.90;;
66089;SDS011;53113;45.602;11.904;2022-12-07T05:13:32;16.20;;;10.40;;
66089;SDS011;53113;45.602;11.904;2022-12-07T05:15:59;16.00;;;11.60;;
66089;SDS011;53113;45.602;11.904;2022-12-07T05:18:25;17.90;;;12.60;;
66089;SDS011;53113;45.602;11.904;2022-12-07T05:20:50;18.10;;;12.90;;
66089;SDS011;53113;45.602;11.904;2022-12-07T05:23:17;20.40;;;14.20;;
66089;SDS011;53113;45.602;11.904;2022-12-07T05:25:43;20.60;;;13.60;;
66089;SDS011;53113;45.602;11.904;2022-12-07T05:28:10;15.30;;;11.00;;
66089;SDS011;53113;45.602;11.904;2022-12-07T05:30:36;17.20;;;11.30;;
66089;SDS011;53113;45.602;11.904;2022-12-07T05:33:02;14.90;;;10.60;;
66089;SDS011;53113;45.602;11.904;2022-12-07T05:35:28;18.00;;;10.40;;
66089;SDS011;53113;45.602;11.904;2022-12-07T05:37:55;16.40;;;11.00;;
66089;SDS011;53113;45.602;11.904;2022-12-07T05:40:22;17.00;;;11.00;;
66089;SDS011;53113;45.602;11.904;2022-12-07T05:42:48;15.60;;;11.20;;
66089;SDS011;53113;45.602;11.904;2022-12-07T05:45:14;18.40;;;10.90;;
66089;SDS011;53113;45.602;11.904;2022-12-07T05:47:39;17.40;;;11.60;;
66089;SDS011;53113;45.602;11.904;2022-12-07T05:50:05;16.40;;;11.80;;
66089;SDS011;53113;45.602;11.904;2022-12-07T05:52:32;18.30;;;12.20;;
66089;SDS011;53113;45.602;11.904;2022-12-07T05:54:58;21.00;;;13.70;;
66089;SDS011;53113;45.602;11.904;2022-12-07T05:57:24;25.30;;;16.50;;
66089;SDS011;53113;45.602;11.904;2022-12-07T05:59:50;22.40;;;15.30;;
66089;SDS011;53113;45.602;11.904;2022-12-07T06:02:16;18.50;;;12.80;;
66089;SDS011;53113;45.602;11.904;2022-12-07T06:04:43;18.50;;;13.30;;
66089;SDS011;53113;45.602;11.904;2022-12-07T06:07:11;17.50;;;12.70;;
66089;SDS011;53113;45.602;11.904;2022-12-07T06:09:39;15.70;;;10.70;;
66089;SDS011;53113;45.602;11.904;2022-12-07T06:12:05;16.70;;;10.80;;
66089;SDS011;53113;45.602;11.904;2022-12-07T06:14:50;16.40;;;11.70;;
66089;SDS011;53113;45.602;11.904;2022-12-07T06:17:16;16.80;;;11.40;;
66089;SDS011;53113;45.602;11.904;2022-12-07T06:19:42;19.60;;;13.10;;
66089;SDS011;53113;45.602;11.904;2022-12-07T06:22:08;20.20;;;13.90;;
66089;SDS011;53113;45.602;11.904;2022-12-07T06:24:37;22.30;;;14.10;;
66089;SDS011;53113;45.602;11.904;2022-12-07T06:27:03;21.10;;;13.50;;
66089;SDS011;53113;45.602;11.904;2022-12-07T06:29:29;20.10;;;14.30;;
66089;SDS011;53113;45.602;11.904;2022-12-07T06:31:55;25.80;;;16.70;;
66089;SDS011;53113;45.602;11.904;2022-12-07T06:34:21;27.70;;;16.80;;
66089;SDS011;53113;45.602;11.904;2022-12-07T06:36:48;21.00;;;14.40;;
66089;SDS011;53113;45.602;11.904;2022-12-07T06:39:20;20.50;;;14.70;;
66089;SDS011;53113;45.602;11.904;2022-12-07T06:41:47;20.30;;;14.00;;
66089;SDS011;53113;45.602;11.904;2022-12-07T06:44:13;18.80;;;12.60;;
66089;SDS011;53113;45.602;11.904;2022-12-07T06:46:39;19.50;;;13.70;;
66089;SDS011;53113;45.602;11.904;2022-12-07T06:49:05;21.60;;;14.10;;
66089;SDS011;53113;45.602;11.904;2022-12-07T06:51:31;19.50;;;13.70;;
66089;SDS011;53113;45.602;11.904;2022-12-07T06:53:58;21.80;;;13.70;;
66089;SDS011;53113;45.602;11.904;2022-12-07T06:56:24;20.20;;;13.50;;
66089;SDS011;53113;45.602;11.904;2022-12-07T06:58:50;20.40;;;13.10;;
66089;SDS011;53113;45.602;11.904;2022-12-07T07:01:17;20.60;;;13.80;;
66089;SDS011;53113;45.602;11.904;2022-12-07T07:03:44;25.70;;;15.30;;
66089;SDS011;53113;45.602;11.904;2022-12-07T07:06:11;23.20;;;16.10;;
66089;SDS011;53113;45.602;11.904;2022-12-07T07:08:38;21.40;;;14.10;;
66089;SDS011;53113;45.602;11.904;2022-12-07T07:11:06;20.30;;;14.70;;
66089;SDS011;53113;45.602;11.904;2022-12-07T07:13:33;20.50;;;14.40;;
66089;SDS011;53113;45.602;11.904;2022-12-07T07:15:59;18.10;;;12.50;;
66089;SDS011;53113;45.602;11.904;2022-12-07T07:18:26;22.20;;;13.70;;
66089;SDS011;53113;45.602;11.904;2022-12-07T07:20:52;20.60;;;14.10;;
66089;SDS011;53113;45.602;11.904;2022-12-07T07:23:19;21.60;;;13.90;;
66089;SDS011;53113;45.602;11.904;2022-12-07T07:25:47;21.30;;;14.80;;
66089;SDS011;53113;45.602;11.904;2022-12-07T07:28:13;25.00;;;16.00;;
66089;SDS011;53113;45.602;11.904;2022-12-07T07:30:40;22.70;;;16.70;;
66089;SDS011;53113;45.602;11.904;2022-12-07T07:33:06;26.40;;;18.20;;
66089;SDS011;53113;45.602;11.904;2022-12-07T07:35:33;27.40;;;19.80;;
66089;SDS011;53113;45.602;11.904;2022-12-07T07:38:00;28.50;;;18.80;;
66089;SDS011;53113;45.602;11.904;2022-12-07T07:40:27;24.20;;;15.00;;
66089;SDS011;53113;45.602;11.904;2022-12-07T07:42:56;26.60;;;17.30;;
66089;SDS011;53113;45.602;11.904;2022-12-07T07:45:23;23.30;;;16.20;;
66089;SDS011;53113;45.602;11.904;2022-12-07T07:47:50;22.10;;;14.70;;
66089;SDS011;53113;45.602;11.904;2022-12-07T07:50:16;20.30;;;13.90;;
66089;SDS011;53113;45.602;11.904;2022-12-07T07:52:44;19.50;;;14.90;;
66089;SDS011;53113;45.602;11.904;2022-12-07T07:55:10;25.30;;;16.10;;
66089;SDS011;53113;45.602;11.904;2022-12-07T07:57:38;21.20;;;15.20;;
66089;SDS011;53113;45.602;11.904;2022-12-07T08:00:11;24.50;;;16.70;;
66089;SDS011;53113;45.602;11.904;2022-12-07T08:02:40;25.40;;;17.00;;
66089;SDS011;53113;45.602;11.904;2022-12-07T08:05:09;25.40;;;18.80;;
66089;SDS011;53113;45.602;11.904;2022-12-07T08:07:37;28.10;;;19.50;;
66089;SDS011;53113;45.602;11.904;2022-12-07T08:10:03;26.20;;;17.00;;
66089;SDS011;53113;45.602;11.904;2022-12-07T08:12:30;25.70;;;19.60;;
66089;SDS011;53113;45.602;11.904;2022-12-07T08:14:56;23.90;;;16.30;;
66089;SDS011;53113;45.602;11.904;2022-12-07T08:17:21;23.90;;;16.50;;
66089;SDS011;53113;45.602;11.904;2022-12-07T08:19:47;25.20;;;17.00;;
66089;SDS011;53113;45.602;11.904;2022-12-07T08:22:13;27.10;;;17.20;;
66089;SDS011;53113;45.602;11.904;2022-12-07T08:24:39;26.10;;;18.60;;
66089;SDS011;53113;45.602;11.904;2022-12-07T08:27:04;30.10;;;19.30;;
66089;SDS011;53113;45.602;11.904;2022-12-07T08:29:30;32.50;;;21.10;;
66089;SDS011;53113;45.602;11.904;2022-12-07T08:31:56;30.20;;;21.20;;
66089;SDS011;53113;45.602;11.904;2022-12-07T08:34:22;34.00;;;21.70;;
66089;SDS011;53113;45.602;11.904;2022-12-07T08:36:48;33.40;;;22.30;;
66089;SDS011;53113;45.602;11.904;2022-12-07T08:39:13;24.90;;;18.40;;
66089;SDS011;53113;45.602;11.904;2022-12-07T08:41:39;25.10;;;19.40;;
66089;SDS011;53113;45.602;11.904;2022-12-07T08:44:05;25.00;;;19.50;;
66089;SDS011;53113;45.602;11.904;2022-12-07T08:46:32;27.60;;;18.80;;
66089;SDS011;53113;45.602;11.904;2022-12-07T08:49:12;28.30;;;19.00;;
66089;SDS011;53113;45.602;11.904;2022-12-07T08:51:39;23.90;;;16.50;;
66089;SDS011;53113;45.602;11.904;2022-12-07T08:54:08;29.20;;;17.30;;
66089;SDS011;53113;45.602;11.904;2022-12-07T08:56:37;20.00;;;15.80;;
66089;SDS011;53113;45.602;11.904;2022-12-07T08:59:04;18.70;;;13.20;;
66089;SDS011;53113;45.602;11.904;2022-12-07T09:01:31;17.40;;;13.20;;
66089;SDS011;53113;45.602;11.904;2022-12-07T09:03:56;21.20;;;14.80;;
66089;SDS011;53113;45.602;11.904;2022-12-07T09:06:22;18.90;;;15.40;;
66089;SDS011;53113;45.602;11.904;2022-12-07T09:08:49;22.40;;;17.10;;
66089;SDS011;53113;45.602;11.904;2022-12-07T09:11:24;21.20;;;15.90;;
66089;SDS011;53113;45.602;11.904;2022-12-07T09:13:50;21.40;;;15.40;;
66089;SDS011;53113;45.602;11.904;2022-12-07T09:16:16;18.10;;;14.40;;
66089;SDS011;53113;45.602;11.904;2022-12-07T09:18:42;19.20;;;13.20;;
66089;SDS011;53113;45.602;11.904;2022-12-07T09:21:08;16.70;;;12.60;;
66089;SDS011;53113;45.602;11.904;2022-12-07T09:23:36;20.50;;;13.60;;
66089;SDS011;53113;45.602;11.904;2022-12-07T09:26:02;20.10;;;12.80;;
66089;SDS011;53113;45.602;11.904;2022-12-07T09:28:33;19.50;;;12.80;;
66089;SDS011;53113;45.602;11.904;2022-12-07T09:33:24;18.10;;;12.10;;
66089;SDS011;53113;45.602;11.904;2022-12-07T09:35:51;18.90;;;12.40;;
66089;SDS011;53113;45.602;11.904;2022-12-07T09:38:18;16.30;;;12.70;;
66089;SDS011;53113;45.602;11.904;2022-12-07T09:40:45;17.70;;;13.10;;
66089;SDS011;53113;45.602;11.904;2022-12-07T09:43:16;16.30;;;11.90;;
66089;SDS011;53113;45.602;11.904;2022-12-07T09:45:45;17.90;;;12.10;;
66089;SDS011;53113;45.602;11.904;2022-12-07T09:48:34;17.50;;;12.10;;
66089;SDS011;53113;45.602;11.904;2022-12-07T09:51:17;16.40;;;12.40;;
66089;SDS011;53113;45.602;11.904;2022-12-07T09:53:48;13.30;;;9.80;;
66089;SDS011;53113;45.602;11.904;2022-12-07T09:56:16;15.40;;;10.90;;
66089;SDS011;53113;45.602;11.904;2022-12-07T09:58:44;21.60;;;13.70;;
66089;SDS011;53113;45.602;11.904;2022-12-07T10:01:13;15.90;;;11.10;;
66089;SDS011;53113;45.602;11.904;2022-12-07T10:06:42;14.30;;;11.10;;
66089;SDS011;53113;45.602;11.904;2022-12-07T10:09:09;13.80;;;10.60;;
66089;SDS011;53113;45.602;11.904;2022-12-07T10:14:40;16.80;;;10.80;;
66089;SDS011;53113;45.602;11.904;2022-12-07T10:17:32;15.70;;;11.30;;
66089;SDS011;53113;45.602;11.904;2022-12-07T10:20:21;15.20;;;10.50;;
66089;SDS011;53113;45.602;11.904;2022-12-07T10:22:59;14.00;;;10.10;;
66089;SDS011;53113;45.602;11.904;2022-12-07T10:25:29;14.30;;;9.80;;
66089;SDS011;53113;45.602;11.904;2022-12-07T10:30:33;14.10;;;10.90;;
66089;SDS011;53113;45.602;11.904;2022-12-07T10:33:26;14.70;;;10.10;;
66089;SDS011;53113;45.602;11.904;2022-12-07T10:35:56;15.10;;;10.80;;
66089;SDS011;53113;45.602;11.904;2022-12-07T10:38:21;14.00;;;10.10;;
66089;SDS011;53113;45.602;11.904;2022-12-07T10:41:05;13.70;;;10.00;;
66089;SDS011;53113;45.602;11.904;2022-12-07T10:43:32;15.30;;;10.30;;
66089;SDS011;53113;45.602;11.904;2022-12-07T10:51:24;14.70;;;9.00;;
66089;SDS011;53113;45.602;11.904;2022-12-07T10:57:17;12.20;;;9.30;;
66089;SDS011;53113;45.602;11.904;2022-12-07T11:02:20;12.30;;;8.20;;
66089;SDS011;53113;45.602;11.904;2022-12-07T11:10:34;13.10;;;8.60;;
66089;SDS011;53113;45.602;11.904;2022-12-07T11:18:48;12.00;;;7.80;;
66089;SDS011;53113;45.602;11.904;2022-12-07T11:21:27;14.20;;;9.10;;
66089;SDS011;53113;45.602;11.904;2022-12-07T11:34:51;11.40;;;7.60;;
66089;SDS011;53113;45.602;11.904;2022-12-07T11:37:34;9.50;;;6.00;;
66089;SDS011;53113;45.602;11.904;2022-12-07T11:40:13;9.20;;;6.20;;
66089;SDS011;53113;45.602;11.904;2022-12-07T11:42:41;9.80;;;5.50;;
66089;SDS011;53113;45.602;11.904;2022-12-07T11:45:20;8.90;;;5.60;;
66089;SDS011;53113;45.602;11.904;2022-12-07T11:47:55;9.10;;;6.70;;
66089;SDS011;53113;45.602;11.904;2022-12-07T11:50:33;9.60;;;6.70;;
66089;SDS011;53113;45.602;11.904;2022-12-07T11:53:52;10.20;;;6.60;;
66089;SDS011;53113;45.602;11.904;2022-12-07T11:56:13;7.50;;;4.40;;
66089;SDS011;53113;45.602;11.904;2022-12-07T12:06:37;4.60;;;2.10;;
66089;SDS011;53113;45.602;11.904;2022-12-07T12:22:23;6.00;;;3.40;;
66089;SDS011;53113;45.602;11.904;2022-12-07T12:25:19;6.60;;;3.70;;
66089;SDS011;53113;45.602;11.904;2022-12-07T12:27:52;7.20;;;3.80;;
66089;SDS011;53113;45.602;11.904;2022-12-07T12:30:37;6.80;;;3.60;;
66089;SDS011;53113;45.602;11.904;2022-12-07T12:33:22;7.50;;;4.50;;
66089;SDS011;53113;45.602;11.904;2022-12-07T12:39:26;7.40;;;4.50;;
66089;SDS011;53113;45.602;11.904;2022-12-07T12:46:57;7.20;;;4.20;;
66089;SDS011;53113;45.602;11.904;2022-12-07T12:49:37;8.00;;;4.60;;
66089;SDS011;53113;45.602;11.904;2022-12-07T12:54:35;7.10;;;4.40;;
66089;SDS011;53113;45.602;11.904;2022-12-07T13:02:23;7.00;;;4.10;;
66089;SDS011;53113;45.602;11.904;2022-12-07T13:04:54;6.60;;;3.90;;
66089;SDS011;53113;45.602;11.904;2022-12-07T13:15:52;7.40;;;4.60;;
66089;SDS011;53113;45.602;11.904;2022-12-07T13:31:38;7.00;;;4.70;;
66089;SDS011;53113;45.602;11.904;2022-12-07T13:37:02;8.80;;;4.90;;
66089;SDS011;53113;45.602;11.904;2022-12-07T13:39:50;8.60;;;5.30;;
66089;SDS011;53113;45.602;11.904;2022-12-07T13:42:27;7.60;;;5.20;;
66089;SDS011;53113;45.602;11.904;2022-12-07T13:44:56;8.40;;;5.00;;
66089;SDS011;53113;45.602;11.904;2022-12-07T13:47:31;7.60;;;5.10;;
66089;SDS011;53113;45.602;11.904;2022-12-07T13:50:26;9.00;;;4.80;;
66089;SDS011;53113;45.602;11.904;2022-12-07T13:52:59;8.20;;;4.70;;
66089;SDS011;53113;45.602;11.904;2022-12-07T13:55:26;8.20;;;5.10;;
66089;SDS011;53113;45.602;11.904;2022-12-07T13:57:53;14.50;;;5.30;;
66089;SDS011;53113;45.602;11.904;2022-12-07T14:00:24;8.70;;;5.20;;
66089;SDS011;53113;45.602;11.904;2022-12-07T14:03:00;8.20;;;5.20;;
66089;SDS011;53113;45.602;11.904;2022-12-07T14:05:31;11.50;;;5.40;;
66089;SDS011;53113;45.602;11.904;2022-12-07T14:08:00;12.70;;;5.30;;
66089;SDS011;53113;45.602;11.904;2022-12-07T14:10:35;9.40;;;4.90;;
66089;SDS011;53113;45.602;11.904;2022-12-07T14:13:03;8.40;;;4.80;;
66089;SDS011;53113;45.602;11.904;2022-12-07T14:15:50;8.50;;;5.20;;
66089;SDS011;53113;45.602;11.904;2022-12-07T14:18:24;8.70;;;5.10;;
66089;SDS011;53113;45.602;11.904;2022-12-07T14:23:35;10.60;;;5.80;;
66089;SDS011;53113;45.602;11.904;2022-12-07T14:26:07;9.10;;;5.30;;
66089;SDS011;53113;45.602;11.904;2022-12-07T14:28:37;10.00;;;5.70;;
66089;SDS011;53113;45.602;11.904;2022-12-07T14:31:08;11.70;;;5.50;;
66089;SDS011;53113;45.602;11.904;2022-12-07T14:33:41;10.90;;;5.80;;
66089;SDS011;53113;45.602;11.904;2022-12-07T14:36:10;12.60;;;6.00;;
66089;SDS011;53113;45.602;11.904;2022-12-07T14:38:37;9.70;;;6.10;;
66089;SDS011;53113;45.602;11.904;2022-12-07T14:41:04;9.30;;;6.00;;
66089;SDS011;53113;45.602;11.904;2022-12-07T14:43:50;12.50;;;6.10;;
66089;SDS011;53113;45.602;11.904;2022-12-07T14:46:16;14.10;;;5.90;;
66089;SDS011;53113;45.602;11.904;2022-12-07T14:48:41;15.10;;;6.70;;
66089;SDS011;53113;45.602;11.904;2022-12-07T14:51:08;13.50;;;6.60;;
66089;SDS011;53113;45.602;11.904;2022-12-07T14:53:39;19.90;;;6.10;;
66089;SDS011;53113;45.602;11.904;2022-12-07T14:56:11;31.40;;;6.90;;
66089;SDS011;53113;45.602;11.904;2022-12-07T14:58:37;24.10;;;8.20;;
66089;SDS011;53113;45.602;11.904;2022-12-07T15:01:03;21.60;;;7.90;;
66089;SDS011;53113;45.602;11.904;2022-12-07T15:03:29;11.80;;;6.80;;
66089;SDS011;53113;45.602;11.904;2022-12-07T15:05:55;13.70;;;6.50;;
66089;SDS011;53113;45.602;11.904;2022-12-07T15:08:21;18.30;;;6.80;;
66089;SDS011;53113;45.602;11.904;2022-12-07T15:10:47;16.90;;;6.60;;
66089;SDS011;53113;45.602;11.904;2022-12-07T15:13:12;16.50;;;7.90;;
66089;SDS011;53113;45.602;11.904;2022-12-07T15:15:58;16.90;;;8.10;;
66089;SDS011;53113;45.602;11.904;2022-12-07T15:18:24;20.80;;;10.00;;
66089;SDS011;53113;45.602;11.904;2022-12-07T15:20:50;14.80;;;7.40;;
66089;SDS011;53113;45.602;11.904;2022-12-07T15:23:16;17.40;;;8.50;;
66089;SDS011;53113;45.602;11.904;2022-12-07T15:25:46;15.10;;;8.30;;
66089;SDS011;53113;45.602;11.904;2022-12-07T15:28:14;14.40;;;7.70;;
66089;SDS011;53113;45.602;11.904;2022-12-07T15:30:41;15.90;;;8.00;;
66089;SDS011;53113;45.602;11.904;2022-12-07T15:33:08;14.10;;;7.80;;
66089;SDS011;53113;45.602;11.904;2022-12-07T15:35:38;11.30;;;8.00;;
66089;SDS011;53113;45.602;11.904;2022-12-07T15:38:05;16.10;;;8.20;;
66089;SDS011;53113;45.602;11.904;2022-12-07T15:40:30;15.20;;;8.00;;
66089;SDS011;53113;45.602;11.904;2022-12-07T15:42:57;16.60;;;7.90;;
66089;SDS011;53113;45.602;11.904;2022-12-07T15:45:22;18.80;;;7.60;;
66089;SDS011;53113;45.602;11.904;2022-12-07T15:47:48;17.70;;;8.10;;
66089;SDS011;53113;45.602;11.904;2022-12-07T15:50:14;23.70;;;9.20;;
66089;SDS011;53113;45.602;11.904;2022-12-07T15:52:41;15.30;;;9.30;;
66089;SDS011;53113;45.602;11.904;2022-12-07T15:55:11;13.90;;;9.80;;
66089;SDS011;53113;45.602;11.904;2022-12-07T15:57:37;18.20;;;10.10;;
66089;SDS011;53113;45.602;11.904;2022-12-07T16:00:04;16.80;;;10.10;;
66089;SDS011;53113;45.602;11.904;2022-12-07T16:02:34;19.40;;;11.50;;
66089;SDS011;53113;45.602;11.904;2022-12-07T16:05:01;20.20;;;12.80;;
66089;SDS011;53113;45.602;11.904;2022-12-07T16:07:27;19.90;;;13.70;;
66089;SDS011;53113;45.602;11.904;2022-12-07T16:09:53;17.80;;;11.60;;
66089;SDS011;53113;45.602;11.904;2022-12-07T16:12:18;24.00;;;14.20;;
66089;SDS011;53113;45.602;11.904;2022-12-07T16:14:44;21.20;;;14.80;;
66089;SDS011;53113;45.602;11.904;2022-12-07T16:17:10;21.90;;;13.80;;
66089;SDS011;53113;45.602;11.904;2022-12-07T16:19:36;22.10;;;14.60;;
66089;SDS011;53113;45.602;11.904;2022-12-07T16:22:02;31.80;;;19.90;;
66089;SDS011;53113;45.602;11.904;2022-12-07T16:24:29;25.50;;;17.50;;
66089;SDS011;53113;45.602;11.904;2022-12-07T16:26:55;23.60;;;16.10;;
66089;SDS011;53113;45.602;11.904;2022-12-07T16:29:22;23.50;;;15.60;;
66089;SDS011;53113;45.602;11.904;2022-12-07T16:31:48;23.40;;;15.20;;
66089;SDS011;53113;45.602;11.904;2022-12-07T16:34:16;22.90;;;15.30;;
66089;SDS011;53113;45.602;11.904;2022-12-07T16:36:41;23.40;;;17.30;;
66089;SDS011;53113;45.602;11.904;2022-12-07T16:39:07;24.00;;;16.10;;
66089;SDS011;53113;45.602;11.904;2022-12-07T16:41:33;26.90;;;16.50;;
66089;SDS011;53113;45.602;11.904;2022-12-07T16:44:03;26.90;;;18.50;;
66089;SDS011;53113;45.602;11.904;2022-12-07T16:46:34;24.80;;;17.80;;
66089;SDS011;53113;45.602;11.904;2022-12-07T16:49:01;28.20;;;18.90;;
66089;SDS011;53113;45.602;11.904;2022-12-07T16:51:27;27.20;;;19.20;;